sensor_id;sensor_type;location;lat;lon;timestamp;P1;durP1;ratioP1;P2;durP2;ratioP2
75191;SDS011;63771;52.580;9.734;2023-03-05T00:00:42;8.73;;;2.78;;
75191;SDS011;63771;52.580;9.734;2023-03-05T00:03:10;3.80;;;2.30;;
75191;SDS011;63771;52.580;9.734;2023-03-05T00:05:36;6.10;;;2.80;;
75191;SDS011;63771;52.580;9.734;2023-03-05T00:08:01;3.45;;;2.63;;
75191;SDS011;63771;52.580;9.734;2023-03-05T00:10:27;5.15;;;2.15;;
75191;SDS011;63771;52.580;9.734;2023-03-05T00:12:52;4.75;;;2.42;;
75191;SDS011;63771;52.580;9.734;2023-03-05T00:15:17;6.57;;;2.13;;
75191;SDS011;63771;52.580;9.734;2023-03-05T00:17:43;3.53;;;2.10;;
75191;SDS011;63771;52.580;9.734;2023-03-05T00:20:08;3.73;;;2.40;;
75191;SDS011;63771;52.580;9.734;2023-03-05T00:22:35;6.07;;;2.53;;
75191;SDS011;63771;52.580;9.734;2023-03-05T00:25:00;9.45;;;2.15;;
75191;SDS011;63771;52.580;9.734;2023-03-05T00:27:26;6.15;;;1.73;;
75191;SDS011;63771;52.580;9.734;2023-03-05T00:29:52;7.73;;;2.10;;
75191;SDS011;63771;52.580;9.734;2023-03-05T00:32:17;7.30;;;2.13;;
75191;SDS011;63771;52.580;9.734;2023-03-05T00:34:42;6.40;;;2.00;;
75191;SDS011;63771;52.580;9.734;2023-03-05T00:37:08;1.63;;;1.53;;
75191;SDS011;63771;52.580;9.734;2023-03-05T00:39:33;2.85;;;1.83;;
75191;SDS011;63771;52.580;9.734;2023-03-05T00:41:58;4.40;;;1.80;;
75191;SDS011;63771;52.580;9.734;2023-03-05T00:44:24;3.47;;;1.43;;
75191;SDS011;63771;52.580;9.734;2023-03-05T00:46:49;6.70;;;1.83;;
75191;SDS011;63771;52.580;9.734;2023-03-05T00:49:15;5.10;;;1.98;;
75191;SDS011;63771;52.580;9.734;2023-03-05T00:51:40;1.85;;;1.63;;
75191;SDS011;63771;52.580;9.734;2023-03-05T00:54:06;7.05;;;2.40;;
75191;SDS011;63771;52.580;9.734;2023-03-05T00:56:31;9.37;;;1.53;;
75191;SDS011;63771;52.580;9.734;2023-03-05T00:58:57;3.30;;;2.03;;
75191;SDS011;63771;52.580;9.734;2023-03-05T01:01:22;2.60;;;2.30;;
75191;SDS011;63771;52.580;9.734;2023-03-05T01:03:48;4.75;;;2.65;;
75191;SDS011;63771;52.580;9.734;2023-03-05T01:06:14;4.07;;;2.15;;
75191;SDS011;63771;52.580;9.734;2023-03-05T01:08:43;6.35;;;1.65;;
75191;SDS011;63771;52.580;9.734;2023-03-05T01:11:09;8.73;;;2.42;;
75191;SDS011;63771;52.580;9.734;2023-03-05T01:13:35;4.88;;;2.65;;
75191;SDS011;63771;52.580;9.734;2023-03-05T01:16:00;2.45;;;1.63;;
75191;SDS011;63771;52.580;9.734;2023-03-05T01:18:27;5.20;;;2.10;;
75191;SDS011;63771;52.580;9.734;2023-03-05T01:20:52;5.68;;;1.73;;
75191;SDS011;63771;52.580;9.734;2023-03-05T01:23:18;5.93;;;1.80;;
75191;SDS011;63771;52.580;9.734;2023-03-05T01:25:43;5.15;;;2.08;;
75191;SDS011;63771;52.580;9.734;2023-03-05T01:28:08;9.77;;;2.25;;
75191;SDS011;63771;52.580;9.734;2023-03-05T01:30:34;5.43;;;1.67;;
75191;SDS011;63771;52.580;9.734;2023-03-05T01:32:59;3.63;;;2.20;;
75191;SDS011;63771;52.580;9.734;2023-03-05T01:35:26;5.20;;;2.10;;
75191;SDS011;63771;52.580;9.734;2023-03-05T01:37:51;6.55;;;2.00;;
75191;SDS011;63771;52.580;9.734;2023-03-05T01:43:38;4.47;;;2.20;;
75191;SDS011;63771;52.580;9.734;2023-03-05T01:45:38;4.45;;;1.77;;
75191;SDS011;63771;52.580;9.734;2023-03-05T01:48:40;4.20;;;1.98;;
75191;SDS011;63771;52.580;9.734;2023-03-05T01:51:08;6.68;;;2.22;;
75191;SDS011;63771;52.580;9.734;2023-03-05T01:53:33;9.73;;;2.90;;
75191;SDS011;63771;52.580;9.734;2023-03-05T01:55:59;5.05;;;2.10;;
75191;SDS011;63771;52.580;9.734;2023-03-05T01:58:25;10.13;;;2.33;;
75191;SDS011;63771;52.580;9.734;2023-03-05T02:00:51;5.63;;;2.03;;
75191;SDS011;63771;52.580;9.734;2023-03-05T02:03:18;8.02;;;2.47;;
75191;SDS011;63771;52.580;9.734;2023-03-05T02:05:46;4.63;;;2.42;;
75191;SDS011;63771;52.580;9.734;2023-03-05T02:08:12;5.72;;;2.00;;
75191;SDS011;63771;52.580;9.734;2023-03-05T02:10:42;6.22;;;2.30;;
75191;SDS011;63771;52.580;9.734;2023-03-05T02:13:14;6.68;;;2.60;;
75191;SDS011;63771;52.580;9.734;2023-03-05T02:15:42;3.67;;;2.20;;
75191;SDS011;63771;52.580;9.734;2023-03-05T02:18:08;7.22;;;2.63;;
75191;SDS011;63771;52.580;9.734;2023-03-05T02:23:21;2.15;;;2.00;;
75191;SDS011;63771;52.580;9.734;2023-03-05T02:25:52;9.32;;;2.42;;
75191;SDS011;63771;52.580;9.734;2023-03-05T02:28:29;4.95;;;2.00;;
75191;SDS011;63771;52.580;9.734;2023-03-05T02:31:00;5.82;;;2.03;;
75191;SDS011;63771;52.580;9.734;2023-03-05T02:33:26;5.00;;;2.63;;
75191;SDS011;63771;52.580;9.734;2023-03-05T02:35:51;7.32;;;2.10;;
75191;SDS011;63771;52.580;9.734;2023-03-05T02:38:18;3.45;;;1.83;;
75191;SDS011;63771;52.580;9.734;2023-03-05T02:40:44;2.80;;;1.95;;
75191;SDS011;63771;52.580;9.734;2023-03-05T02:43:10;7.93;;;2.25;;
75191;SDS011;63771;52.580;9.734;2023-03-05T02:45:36;5.07;;;2.13;;
75191;SDS011;63771;52.580;9.734;2023-03-05T02:48:02;4.55;;;2.35;;
75191;SDS011;63771;52.580;9.734;2023-03-05T02:50:27;5.95;;;2.72;;
75191;SDS011;63771;52.580;9.734;2023-03-05T02:52:53;8.77;;;3.90;;
75191;SDS011;63771;52.580;9.734;2023-03-05T02:55:19;10.13;;;3.03;;
75191;SDS011;63771;52.580;9.734;2023-03-05T02:57:44;6.00;;;2.70;;
75191;SDS011;63771;52.580;9.734;2023-03-05T03:00:09;5.90;;;2.83;;
75191;SDS011;63771;52.580;9.734;2023-03-05T03:02:35;6.53;;;2.53;;
75191;SDS011;63771;52.580;9.734;2023-03-05T03:05:00;5.82;;;2.45;;
75191;SDS011;63771;52.580;9.734;2023-03-05T03:07:26;4.55;;;3.20;;
75191;SDS011;63771;52.580;9.734;2023-03-05T03:09:51;7.43;;;2.97;;
75191;SDS011;63771;52.580;9.734;2023-03-05T03:12:17;8.57;;;3.45;;
75191;SDS011;63771;52.580;9.734;2023-03-05T03:14:42;11.07;;;3.50;;
75191;SDS011;63771;52.580;9.734;2023-03-05T03:17:09;3.70;;;2.97;;
75191;SDS011;63771;52.580;9.734;2023-03-05T03:19:37;11.10;;;4.65;;
75191;SDS011;63771;52.580;9.734;2023-03-05T03:22:03;6.25;;;3.33;;
75191;SDS011;63771;52.580;9.734;2023-03-05T03:24:29;8.30;;;4.30;;
75191;SDS011;63771;52.580;9.734;2023-03-05T03:26:55;3.88;;;3.50;;
75191;SDS011;63771;52.580;9.734;2023-03-05T03:29:20;6.95;;;4.25;;
75191;SDS011;63771;52.580;9.734;2023-03-05T03:31:46;6.07;;;3.33;;
75191;SDS011;63771;52.580;9.734;2023-03-05T03:34:12;4.97;;;3.25;;
75191;SDS011;63771;52.580;9.734;2023-03-05T03:36:39;7.93;;;3.35;;
75191;SDS011;63771;52.580;9.734;2023-03-05T03:39:04;4.38;;;3.97;;
75191;SDS011;63771;52.580;9.734;2023-03-05T03:41:30;6.20;;;4.13;;
75191;SDS011;63771;52.580;9.734;2023-03-05T03:43:56;4.75;;;3.83;;
75191;SDS011;63771;52.580;9.734;2023-03-05T03:46:21;3.88;;;3.55;;
75191;SDS011;63771;52.580;9.734;2023-03-05T03:48:48;2.97;;;2.77;;
75191;SDS011;63771;52.580;9.734;2023-03-05T03:53:40;3.92;;;3.60;;
75191;SDS011;63771;52.580;9.734;2023-03-05T03:56:06;4.67;;;3.13;;
75191;SDS011;63771;52.580;9.734;2023-03-05T03:58:31;3.38;;;2.92;;
75191;SDS011;63771;52.580;9.734;2023-03-05T04:00:57;3.85;;;3.47;;
75191;SDS011;63771;52.580;9.734;2023-03-05T04:03:22;3.40;;;3.10;;
75191;SDS011;63771;52.580;9.734;2023-03-05T04:05:47;5.23;;;3.80;;
75191;SDS011;63771;52.580;9.734;2023-03-05T04:08:12;3.63;;;3.43;;
75191;SDS011;63771;52.580;9.734;2023-03-05T04:10:38;3.37;;;3.07;;
75191;SDS011;63771;52.580;9.734;2023-03-05T04:13:06;5.68;;;3.40;;
75191;SDS011;63771;52.580;9.734;2023-03-05T04:15:32;4.20;;;3.78;;
75191;SDS011;63771;52.580;9.734;2023-03-05T04:17:58;3.92;;;3.35;;
75191;SDS011;63771;52.580;9.734;2023-03-05T04:20:23;4.50;;;3.90;;
75191;SDS011;63771;52.580;9.734;2023-03-05T04:22:49;5.27;;;3.93;;
75191;SDS011;63771;52.580;9.734;2023-03-05T04:25:14;6.97;;;4.05;;
75191;SDS011;63771;52.580;9.734;2023-03-05T04:27:39;6.88;;;4.70;;
75191;SDS011;63771;52.580;9.734;2023-03-05T04:30:06;4.50;;;4.20;;
75191;SDS011;63771;52.580;9.734;2023-03-05T04:32:35;5.95;;;3.63;;
75191;SDS011;63771;52.580;9.734;2023-03-05T04:35:01;6.40;;;3.40;;
75191;SDS011;63771;52.580;9.734;2023-03-05T04:37:26;6.05;;;4.03;;
75191;SDS011;63771;52.580;9.734;2023-03-05T04:39:52;7.63;;;4.13;;
75191;SDS011;63771;52.580;9.734;2023-03-05T04:42:17;3.88;;;3.53;;
75191;SDS011;63771;52.580;9.734;2023-03-05T04:44:44;5.38;;;3.85;;
75191;SDS011;63771;52.580;9.734;2023-03-05T04:47:10;5.05;;;3.85;;
75191;SDS011;63771;52.580;9.734;2023-03-05T04:49:36;5.40;;;3.65;;
75191;SDS011;63771;52.580;9.734;2023-03-05T04:52:01;4.90;;;3.37;;
75191;SDS011;63771;52.580;9.734;2023-03-05T04:54:26;7.97;;;3.83;;
75191;SDS011;63771;52.580;9.734;2023-03-05T04:56:52;8.83;;;3.80;;
75191;SDS011;63771;52.580;9.734;2023-03-05T04:59:17;4.07;;;3.17;;
75191;SDS011;63771;52.580;9.734;2023-03-05T05:01:43;6.13;;;3.53;;
75191;SDS011;63771;52.580;9.734;2023-03-05T05:04:08;5.05;;;4.18;;
75191;SDS011;63771;52.580;9.734;2023-03-05T05:06:33;7.13;;;3.93;;
75191;SDS011;63771;52.580;9.734;2023-03-05T05:08:59;2.80;;;2.60;;
75191;SDS011;63771;52.580;9.734;2023-03-05T05:11:24;9.45;;;3.63;;
75191;SDS011;63771;52.580;9.734;2023-03-05T05:13:50;4.18;;;3.42;;
75191;SDS011;63771;52.580;9.734;2023-03-05T05:16:15;4.27;;;3.60;;
75191;SDS011;63771;52.580;9.734;2023-03-05T05:18:40;5.53;;;3.47;;
75191;SDS011;63771;52.580;9.734;2023-03-05T05:21:10;4.88;;;3.58;;
75191;SDS011;63771;52.580;9.734;2023-03-05T05:23:36;7.45;;;3.83;;
75191;SDS011;63771;52.580;9.734;2023-03-05T05:26:03;3.70;;;3.40;;
75191;SDS011;63771;52.580;9.734;2023-03-05T05:28:30;4.10;;;3.58;;
75191;SDS011;63771;52.580;9.734;2023-03-05T05:30:55;3.78;;;3.42;;
75191;SDS011;63771;52.580;9.734;2023-03-05T05:33:21;6.03;;;3.65;;
75191;SDS011;63771;52.580;9.734;2023-03-05T05:35:47;7.03;;;3.40;;
75191;SDS011;63771;52.580;9.734;2023-03-05T05:38:13;5.25;;;3.90;;
75191;SDS011;63771;52.580;9.734;2023-03-05T05:40:38;4.40;;;3.03;;
75191;SDS011;63771;52.580;9.734;2023-03-05T05:43:04;5.05;;;3.70;;
75191;SDS011;63771;52.580;9.734;2023-03-05T05:45:30;6.57;;;3.53;;
75191;SDS011;63771;52.580;9.734;2023-03-05T05:47:55;7.40;;;3.63;;
75191;SDS011;63771;52.580;9.734;2023-03-05T05:50:20;7.60;;;3.70;;
75191;SDS011;63771;52.580;9.734;2023-03-05T05:52:46;5.30;;;3.30;;
75191;SDS011;63771;52.580;9.734;2023-03-05T05:55:11;4.57;;;3.07;;
75191;SDS011;63771;52.580;9.734;2023-03-05T05:57:37;4.03;;;3.63;;
75191;SDS011;63771;52.580;9.734;2023-03-05T06:00:03;9.02;;;3.67;;
75191;SDS011;63771;52.580;9.734;2023-03-05T06:02:31;6.32;;;3.97;;
75191;SDS011;63771;52.580;9.734;2023-03-05T06:04:56;5.47;;;3.60;;
75191;SDS011;63771;52.580;9.734;2023-03-05T06:07:22;7.35;;;3.47;;
75191;SDS011;63771;52.580;9.734;2023-03-05T06:09:47;4.38;;;3.90;;
75191;SDS011;63771;52.580;9.734;2023-03-05T06:12:12;5.57;;;4.00;;
75191;SDS011;63771;52.580;9.734;2023-03-05T06:14:38;9.07;;;4.03;;
75191;SDS011;63771;52.580;9.734;2023-03-05T06:17:03;7.47;;;4.13;;
75191;SDS011;63771;52.580;9.734;2023-03-05T06:19:28;4.72;;;3.70;;
75191;SDS011;63771;52.580;9.734;2023-03-05T06:21:54;4.35;;;3.67;;
75191;SDS011;63771;52.580;9.734;2023-03-05T06:24:19;7.80;;;4.70;;
75191;SDS011;63771;52.580;9.734;2023-03-05T06:26:46;5.20;;;4.20;;
75191;SDS011;63771;52.580;9.734;2023-03-05T06:29:12;9.52;;;4.32;;
75191;SDS011;63771;52.580;9.734;2023-03-05T06:31:38;4.68;;;3.55;;
75191;SDS011;63771;52.580;9.734;2023-03-05T06:34:03;6.40;;;4.20;;
75191;SDS011;63771;52.580;9.734;2023-03-05T06:36:29;4.78;;;4.25;;
75191;SDS011;63771;52.580;9.734;2023-03-05T06:38:55;7.90;;;4.63;;
75191;SDS011;63771;52.580;9.734;2023-03-05T06:41:22;5.22;;;3.78;;
75191;SDS011;63771;52.580;9.734;2023-03-05T06:46:19;9.60;;;5.30;;
75191;SDS011;63771;52.580;9.734;2023-03-05T06:48:46;3.78;;;3.35;;
75191;SDS011;63771;52.580;9.734;2023-03-05T06:51:13;5.55;;;3.72;;
75191;SDS011;63771;52.580;9.734;2023-03-05T06:53:40;5.57;;;3.58;;
75191;SDS011;63771;52.580;9.734;2023-03-05T06:56:06;3.67;;;3.25;;
75191;SDS011;63771;52.580;9.734;2023-03-05T06:58:31;6.50;;;4.35;;
75191;SDS011;63771;52.580;9.734;2023-03-05T07:00:57;3.77;;;3.33;;
75191;SDS011;63771;52.580;9.734;2023-03-05T07:03:22;4.47;;;3.10;;
75191;SDS011;63771;52.580;9.734;2023-03-05T07:05:48;3.13;;;3.00;;
75191;SDS011;63771;52.580;9.734;2023-03-05T07:08:13;5.90;;;3.58;;
75191;SDS011;63771;52.580;9.734;2023-03-05T07:10:39;5.72;;;3.42;;
75191;SDS011;63771;52.580;9.734;2023-03-05T07:13:06;4.88;;;2.95;;
75191;SDS011;63771;52.580;9.734;2023-03-05T07:15:33;4.32;;;3.30;;
75191;SDS011;63771;52.580;9.734;2023-03-05T07:17:59;5.35;;;4.00;;
75191;SDS011;63771;52.580;9.734;2023-03-05T07:20:24;7.40;;;4.35;;
75191;SDS011;63771;52.580;9.734;2023-03-05T07:22:50;7.00;;;3.75;;
75191;SDS011;63771;52.580;9.734;2023-03-05T07:25:15;4.73;;;4.07;;
75191;SDS011;63771;52.580;9.734;2023-03-05T07:27:45;4.63;;;3.67;;
75191;SDS011;63771;52.580;9.734;2023-03-05T07:30:12;6.75;;;3.88;;
75191;SDS011;63771;52.580;9.734;2023-03-05T07:32:38;5.72;;;4.28;;
75191;SDS011;63771;52.580;9.734;2023-03-05T07:35:03;6.75;;;3.88;;
75191;SDS011;63771;52.580;9.734;2023-03-05T07:37:29;6.50;;;3.58;;
75191;SDS011;63771;52.580;9.734;2023-03-05T07:39:54;4.82;;;4.00;;
75191;SDS011;63771;52.580;9.734;2023-03-05T07:42:19;4.20;;;3.87;;
75191;SDS011;63771;52.580;9.734;2023-03-05T07:44:45;3.67;;;3.42;;
75191;SDS011;63771;52.580;9.734;2023-03-05T07:47:10;4.43;;;3.47;;
75191;SDS011;63771;52.580;9.734;2023-03-05T07:49:35;4.70;;;3.83;;
75191;SDS011;63771;52.580;9.734;2023-03-05T07:52:03;6.90;;;3.72;;
75191;SDS011;63771;52.580;9.734;2023-03-05T07:54:30;4.65;;;3.58;;
75191;SDS011;63771;52.580;9.734;2023-03-05T07:56:55;4.97;;;3.17;;
75191;SDS011;63771;52.580;9.734;2023-03-05T07:59:20;5.50;;;3.20;;
75191;SDS011;63771;52.580;9.734;2023-03-05T08:01:46;3.85;;;3.55;;
75191;SDS011;63771;52.580;9.734;2023-03-05T08:04:11;3.97;;;3.07;;
75191;SDS011;63771;52.580;9.734;2023-03-05T08:06:39;5.20;;;3.00;;
75191;SDS011;63771;52.580;9.734;2023-03-05T08:09:06;4.40;;;3.10;;
75191;SDS011;63771;52.580;9.734;2023-03-05T08:11:31;3.10;;;2.90;;
75191;SDS011;63771;52.580;9.734;2023-03-05T08:13:56;3.22;;;2.90;;
75191;SDS011;63771;52.580;9.734;2023-03-05T08:16:23;4.07;;;2.65;;
75191;SDS011;63771;52.580;9.734;2023-03-05T08:18:52;3.63;;;2.63;;
75191;SDS011;63771;52.580;9.734;2023-03-05T08:21:21;3.72;;;2.65;;
75191;SDS011;63771;52.580;9.734;2023-03-05T08:23:47;3.95;;;2.72;;
75191;SDS011;63771;52.580;9.734;2023-03-05T08:26:14;5.32;;;3.05;;
75191;SDS011;63771;52.580;9.734;2023-03-05T08:28:41;3.05;;;2.60;;
75191;SDS011;63771;52.580;9.734;2023-03-05T08:31:07;5.20;;;2.58;;
75191;SDS011;63771;52.580;9.734;2023-03-05T08:33:34;3.75;;;2.85;;
75191;SDS011;63771;52.580;9.734;2023-03-05T08:35:59;5.65;;;2.38;;
75191;SDS011;63771;52.580;9.734;2023-03-05T08:38:25;2.80;;;2.13;;
75191;SDS011;63771;52.580;9.734;2023-03-05T08:40:50;2.67;;;2.47;;
75191;SDS011;63771;52.580;9.734;2023-03-05T08:43:16;2.70;;;2.58;;
75191;SDS011;63771;52.580;9.734;2023-03-05T08:45:42;2.33;;;2.20;;
75191;SDS011;63771;52.580;9.734;2023-03-05T08:48:07;3.73;;;2.53;;
75191;SDS011;63771;52.580;9.734;2023-03-05T08:50:34;4.70;;;1.83;;
75191;SDS011;63771;52.580;9.734;2023-03-05T08:53:00;2.75;;;2.45;;
75191;SDS011;63771;52.580;9.734;2023-03-05T08:55:26;3.63;;;2.53;;
75191;SDS011;63771;52.580;9.734;2023-03-05T08:57:51;1.98;;;1.80;;
75191;SDS011;63771;52.580;9.734;2023-03-05T09:00:17;2.30;;;2.03;;
75191;SDS011;63771;52.580;9.734;2023-03-05T09:02:43;2.28;;;2.00;;
75191;SDS011;63771;52.580;9.734;2023-03-05T09:05:08;3.33;;;2.00;;
75191;SDS011;63771;52.580;9.734;2023-03-05T09:07:34;2.05;;;1.83;;
75191;SDS011;63771;52.580;9.734;2023-03-05T09:09:59;2.38;;;2.17;;
75191;SDS011;63771;52.580;9.734;2023-03-05T09:12:25;4.60;;;2.13;;
75191;SDS011;63771;52.580;9.734;2023-03-05T09:14:52;3.03;;;2.45;;
75191;SDS011;63771;52.580;9.734;2023-03-05T09:17:18;2.97;;;2.40;;
75191;SDS011;63771;52.580;9.734;2023-03-05T09:19:44;2.87;;;2.03;;
75191;SDS011;63771;52.580;9.734;2023-03-05T09:22:09;2.10;;;1.90;;
75191;SDS011;63771;52.580;9.734;2023-03-05T09:24:35;2.55;;;2.28;;
75191;SDS011;63771;52.580;9.734;2023-03-05T09:27:00;5.75;;;2.45;;
75191;SDS011;63771;52.580;9.734;2023-03-05T09:29:25;2.75;;;2.55;;
75191;SDS011;63771;52.580;9.734;2023-03-05T09:31:52;5.30;;;2.40;;
75191;SDS011;63771;52.580;9.734;2023-03-05T09:34:17;5.43;;;2.17;;
75191;SDS011;63771;52.580;9.734;2023-03-05T09:36:43;5.50;;;2.72;;
75191;SDS011;63771;52.580;9.734;2023-03-05T09:39:08;2.25;;;2.03;;
75191;SDS011;63771;52.580;9.734;2023-03-05T09:52:40;6.72;;;2.00;;
75191;SDS011;63771;52.580;9.734;2023-03-05T09:55:18;3.17;;;1.88;;
75191;SDS011;63771;52.580;9.734;2023-03-05T09:58:02;1.77;;;1.63;;
75191;SDS011;63771;52.580;9.734;2023-03-05T10:00:38;1.17;;;1.13;;
75191;SDS011;63771;52.580;9.734;2023-03-05T10:03:12;4.15;;;1.75;;
75191;SDS011;63771;52.580;9.734;2023-03-05T10:08:40;5.88;;;1.52;;
75191;SDS011;63771;52.580;9.734;2023-03-05T10:11:18;1.50;;;1.40;;
75191;SDS011;63771;52.580;9.734;2023-03-05T10:14:04;2.90;;;1.52;;
75191;SDS011;63771;52.580;9.734;2023-03-05T10:16:40;5.65;;;1.45;;
75191;SDS011;63771;52.580;9.734;2023-03-05T10:22:18;3.25;;;1.30;;
75191;SDS011;63771;52.580;9.734;2023-03-05T10:27:42;2.28;;;1.35;;
75191;SDS011;63771;52.580;9.734;2023-03-05T10:38:49;1.15;;;1.15;;
75191;SDS011;63771;52.580;9.734;2023-03-05T10:44:15;1.67;;;1.58;;
75191;SDS011;63771;52.580;9.734;2023-03-05T10:46:47;5.53;;;1.35;;
75191;SDS011;63771;52.580;9.734;2023-03-05T10:57:02;3.15;;;1.58;;
75191;SDS011;63771;52.580;9.734;2023-03-05T10:59:28;1.63;;;1.30;;
75191;SDS011;63771;52.580;9.734;2023-03-05T11:02:04;3.15;;;1.23;;
75191;SDS011;63771;52.580;9.734;2023-03-05T11:04:33;2.38;;;1.35;;
75191;SDS011;63771;52.580;9.734;2023-03-05T11:07:27;3.95;;;1.73;;
75191;SDS011;63771;52.580;9.734;2023-03-05T11:12:26;1.60;;;1.50;;
75191;SDS011;63771;52.580;9.734;2023-03-05T11:15:38;4.00;;;1.00;;
75191;SDS011;63771;52.580;9.734;2023-03-05T11:23:08;1.53;;;1.20;;
75191;SDS011;63771;52.580;9.734;2023-03-05T11:28:20;1.00;;;1.00;;
75191;SDS011;63771;52.580;9.734;2023-03-05T11:33:27;0.52;;;0.52;;
75191;SDS011;63771;52.580;9.734;2023-03-05T11:36:07;2.10;;;0.88;;
75191;SDS011;63771;52.580;9.734;2023-03-05T11:38:43;3.03;;;0.80;;
75191;SDS011;63771;52.580;9.734;2023-03-05T11:41:16;2.00;;;0.77;;
75191;SDS011;63771;52.580;9.734;2023-03-05T11:43:47;0.98;;;0.85;;
75191;SDS011;63771;52.580;9.734;2023-03-05T11:46:15;1.90;;;0.75;;
75191;SDS011;63771;52.580;9.734;2023-03-05T11:48:43;2.85;;;0.70;;
75191;SDS011;63771;52.580;9.734;2023-03-05T11:51:15;3.63;;;0.70;;
75191;SDS011;63771;52.580;9.734;2023-03-05T11:53:44;1.15;;;1.00;;
75191;SDS011;63771;52.580;9.734;2023-03-05T11:56:32;0.75;;;0.75;;
75191;SDS011;63771;52.580;9.734;2023-03-05T11:59:02;4.75;;;1.10;;
75191;SDS011;63771;52.580;9.734;2023-03-05T12:01:32;6.35;;;1.30;;
75191;SDS011;63771;52.580;9.734;2023-03-05T12:04:04;3.03;;;1.30;;
75191;SDS011;63771;52.580;9.734;2023-03-05T12:11:52;4.15;;;0.98;;
75191;SDS011;63771;52.580;9.734;2023-03-05T12:14:27;2.25;;;0.93;;
75191;SDS011;63771;52.580;9.734;2023-03-05T12:17:06;3.08;;;1.27;;
75191;SDS011;63771;52.580;9.734;2023-03-05T12:22:22;3.55;;;1.13;;
75191;SDS011;63771;52.580;9.734;2023-03-05T12:24:49;0.93;;;0.93;;
75191;SDS011;63771;52.580;9.734;2023-03-05T12:27:16;3.40;;;1.30;;
75191;SDS011;63771;52.580;9.734;2023-03-05T12:29:57;6.13;;;1.55;;
75191;SDS011;63771;52.580;9.734;2023-03-05T12:34:57;1.50;;;1.40;;
75191;SDS011;63771;52.580;9.734;2023-03-05T12:53:09;2.93;;;1.53;;
75191;SDS011;63771;52.580;9.734;2023-03-05T12:55:37;2.05;;;1.23;;
75191;SDS011;63771;52.580;9.734;2023-03-05T12:59:16;1.52;;;1.23;;
75191;SDS011;63771;52.580;9.734;2023-03-05T13:01:22;2.88;;;1.73;;
75191;SDS011;63771;52.580;9.734;2023-03-05T13:04:05;1.77;;;1.52;;
75191;SDS011;63771;52.580;9.734;2023-03-05T13:06:38;3.45;;;1.40;;
75191;SDS011;63771;52.580;9.734;2023-03-05T13:09:07;2.00;;;1.83;;
75191;SDS011;63771;52.580;9.734;2023-03-05T13:12:02;1.33;;;1.23;;
75191;SDS011;63771;52.580;9.734;2023-03-05T13:28:23;4.53;;;1.63;;
75191;SDS011;63771;52.580;9.734;2023-03-05T13:30:54;1.83;;;1.38;;
75191;SDS011;63771;52.580;9.734;2023-03-05T13:33:25;1.48;;;0.82;;
75191;SDS011;63771;52.580;9.734;2023-03-05T13:35:52;1.13;;;1.02;;
75191;SDS011;63771;52.580;9.734;2023-03-05T13:38:22;2.60;;;0.90;;
75191;SDS011;63771;52.580;9.734;2023-03-05T13:41:36;0.90;;;0.90;;
75191;SDS011;63771;52.580;9.734;2023-03-05T13:43:42;0.93;;;0.82;;
75191;SDS011;63771;52.580;9.734;2023-03-05T13:46:09;1.60;;;1.10;;
75191;SDS011;63771;52.580;9.734;2023-03-05T13:48:35;1.50;;;1.10;;
75191;SDS011;63771;52.580;9.734;2023-03-05T13:51:00;2.73;;;1.00;;
75191;SDS011;63771;52.580;9.734;2023-03-05T13:53:31;2.30;;;0.85;;
75191;SDS011;63771;52.580;9.734;2023-03-05T13:56:04;2.35;;;1.48;;
75191;SDS011;63771;52.580;9.734;2023-03-05T14:03:57;1.95;;;0.98;;
75191;SDS011;63771;52.580;9.734;2023-03-05T14:06:29;1.30;;;1.15;;
75191;SDS011;63771;52.580;9.734;2023-03-05T14:09:04;3.65;;;1.30;;
75191;SDS011;63771;52.580;9.734;2023-03-05T14:11:31;1.23;;;1.23;;
75191;SDS011;63771;52.580;9.734;2023-03-05T14:13:59;1.30;;;1.20;;
75191;SDS011;63771;52.580;9.734;2023-03-05T14:16:30;1.30;;;1.30;;
75191;SDS011;63771;52.580;9.734;2023-03-05T14:18:58;1.33;;;1.33;;
75191;SDS011;63771;52.580;9.734;2023-03-05T14:21:40;1.67;;;1.38;;
75191;SDS011;63771;52.580;9.734;2023-03-05T14:24:20;5.15;;;1.38;;
75191;SDS011;63771;52.580;9.734;2023-03-05T14:26:57;4.28;;;1.50;;
75191;SDS011;63771;52.580;9.734;2023-03-05T14:29:27;1.52;;;1.42;;
75191;SDS011;63771;52.580;9.734;2023-03-05T14:32:02;1.45;;;1.35;;
75191;SDS011;63771;52.580;9.734;2023-03-05T14:34:31;1.73;;;1.25;;
75191;SDS011;63771;52.580;9.734;2023-03-05T14:37:00;1.63;;;1.52;;
75191;SDS011;63771;52.580;9.734;2023-03-05T14:42:11;1.83;;;1.20;;
75191;SDS011;63771;52.580;9.734;2023-03-05T14:44:45;3.75;;;1.50;;
75191;SDS011;63771;52.580;9.734;2023-03-05T14:47:10;1.98;;;1.88;;
75191;SDS011;63771;52.580;9.734;2023-03-05T14:49:36;1.42;;;1.33;;
75191;SDS011;63771;52.580;9.734;2023-03-05T14:52:01;2.20;;;1.50;;
75191;SDS011;63771;52.580;9.734;2023-03-05T14:54:27;1.17;;;1.17;;
75191;SDS011;63771;52.580;9.734;2023-03-05T14:56:59;1.42;;;1.35;;
75191;SDS011;63771;52.580;9.734;2023-03-05T14:59:24;1.33;;;1.17;;
75191;SDS011;63771;52.580;9.734;2023-03-05T15:01:50;3.37;;;1.30;;
75191;SDS011;63771;52.580;9.734;2023-03-05T15:04:15;1.45;;;1.45;;
75191;SDS011;63771;52.580;9.734;2023-03-05T15:06:43;2.08;;;1.40;;
75191;SDS011;63771;52.580;9.734;2023-03-05T15:09:12;3.70;;;1.50;;
75191;SDS011;63771;52.580;9.734;2023-03-05T15:11:41;2.17;;;1.58;;
75191;SDS011;63771;52.580;9.734;2023-03-05T15:14:10;1.55;;;1.45;;
75191;SDS011;63771;52.580;9.734;2023-03-05T15:16:44;1.63;;;1.52;;
75191;SDS011;63771;52.580;9.734;2023-03-05T15:19:12;1.60;;;1.50;;
75191;SDS011;63771;52.580;9.734;2023-03-05T15:21:38;1.70;;;1.60;;
75191;SDS011;63771;52.580;9.734;2023-03-05T15:24:04;1.63;;;1.52;;
75191;SDS011;63771;52.580;9.734;2023-03-05T15:26:29;1.48;;;1.38;;
75191;SDS011;63771;52.580;9.734;2023-03-05T15:28:55;2.40;;;1.90;;
75191;SDS011;63771;52.580;9.734;2023-03-05T15:31:20;1.63;;;1.52;;
75191;SDS011;63771;52.580;9.734;2023-03-05T15:33:45;6.70;;;2.10;;
75191;SDS011;63771;52.580;9.734;2023-03-05T15:36:11;1.47;;;1.47;;
75191;SDS011;63771;52.580;9.734;2023-03-05T15:38:37;1.60;;;1.60;;
75191;SDS011;63771;52.580;9.734;2023-03-05T15:41:03;2.72;;;2.00;;
75191;SDS011;63771;52.580;9.734;2023-03-05T15:43:29;1.92;;;1.67;;
75191;SDS011;63771;52.580;9.734;2023-03-05T15:45:55;1.65;;;1.63;;
75191;SDS011;63771;52.580;9.734;2023-03-05T15:48:20;1.60;;;1.50;;
75191;SDS011;63771;52.580;9.734;2023-03-05T15:50:45;1.83;;;1.73;;
75191;SDS011;63771;52.580;9.734;2023-03-05T15:53:11;1.90;;;1.80;;
75191;SDS011;63771;52.580;9.734;2023-03-05T15:55:40;1.85;;;1.75;;
75191;SDS011;63771;52.580;9.734;2023-03-05T15:58:07;1.25;;;1.25;;
75191;SDS011;63771;52.580;9.734;2023-03-05T16:00:34;1.90;;;1.80;;
75191;SDS011;63771;52.580;9.734;2023-03-05T16:03:04;1.80;;;1.70;;
75191;SDS011;63771;52.580;9.734;2023-03-05T16:05:30;1.77;;;1.70;;
75191;SDS011;63771;52.580;9.734;2023-03-05T16:07:58;2.50;;;1.58;;
75191;SDS011;63771;52.580;9.734;2023-03-05T16:10:24;2.25;;;1.83;;
75191;SDS011;63771;52.580;9.734;2023-03-05T16:12:53;2.65;;;1.40;;
75191;SDS011;63771;52.580;9.734;2023-03-05T16:15:22;2.65;;;1.73;;
75191;SDS011;63771;52.580;9.734;2023-03-05T16:17:49;1.67;;;1.33;;
75191;SDS011;63771;52.580;9.734;2023-03-05T16:20:18;5.32;;;1.52;;
75191;SDS011;63771;52.580;9.734;2023-03-05T16:22:44;1.48;;;1.45;;
75191;SDS011;63771;52.580;9.734;2023-03-05T16:25:10;2.30;;;2.10;;
75191;SDS011;63771;52.580;9.734;2023-03-05T16:27:36;1.83;;;1.73;;
75191;SDS011;63771;52.580;9.734;2023-03-05T16:30:01;1.90;;;1.60;;
75191;SDS011;63771;52.580;9.734;2023-03-05T16:32:28;2.25;;;2.13;;
75191;SDS011;63771;52.580;9.734;2023-03-05T16:34:53;3.08;;;1.92;;
75191;SDS011;63771;52.580;9.734;2023-03-05T16:37:20;1.97;;;1.90;;
75191;SDS011;63771;52.580;9.734;2023-03-05T16:39:46;1.75;;;1.65;;
75191;SDS011;63771;52.580;9.734;2023-03-05T16:42:12;2.20;;;2.10;;